createdAt,value
2018-11-27T00:00:00.975Z,21.58
2018-11-27T00:00:38.683Z,21.58
2018-11-27T00:01:16.269Z,21.59
2018-11-27T00:01:53.824Z,21.58
2018-11-27T00:02:31.328Z,21.59
2018-11-27T00:03:08.975Z,21.57
2018-11-27T00:03:46.456Z,21.57
2018-11-27T00:04:24.365Z,21.57
2018-11-27T00:05:02.001Z,21.57
2018-11-27T00:05:39.644Z,21.58
2018-11-27T00:06:17.382Z,21.56
2018-11-27T00:06:55.227Z,21.56
2018-11-27T00:07:32.653Z,21.58
2018-11-27T00:08:10.284Z,21.58
2018-11-27T00:08:47.948Z,21.59
2018-11-27T00:09:25.564Z,21.59
2018-11-27T00:10:03.090Z,21.58
2018-11-27T00:10:40.795Z,21.61
2018-11-27T00:11:18.316Z,21.59
2018-11-27T00:11:55.880Z,21.58
2018-11-27T00:12:33.468Z,21.62
2018-11-27T00:13:11.037Z,21.62
2018-11-27T00:13:48.641Z,21.63
2018-11-27T00:14:26.198Z,21.63
2018-11-27T00:15:03.736Z,21.63
2018-11-27T00:15:41.424Z,21.61
2018-11-27T00:16:18.919Z,21.62
2018-11-27T00:16:56.435Z,21.63
2018-11-27T00:17:34.037Z,21.64
2018-11-27T00:18:11.668Z,21.63
2018-11-27T00:18:49.140Z,21.63
2018-11-27T00:19:26.874Z,21.63
2018-11-27T00:20:04.480Z,21.64
2018-11-27T00:20:42.065Z,21.63
2018-11-27T00:21:19.556Z,21.62
2018-11-27T00:21:57.028Z,21.63
2018-11-27T00:22:34.561Z,21.66
2018-11-27T00:23:12.143Z,21.63
2018-11-27T00:23:49.722Z,21.64
2018-11-27T00:24:27.284Z,21.65
2018-11-27T00:25:04.824Z,21.64
2018-11-27T00:25:42.500Z,21.64
2018-11-27T00:26:19.953Z,21.63
2018-11-27T00:26:57.658Z,21.65
2018-11-27T00:27:35.192Z,21.67
2018-11-27T00:28:12.858Z,21.64
2018-11-27T00:28:50.731Z,21.65
2018-11-27T00:29:28.277Z,21.65
2018-11-27T00:30:05.687Z,21.66
2018-11-27T00:30:43.301Z,21.66
2018-11-27T00:31:20.876Z,21.67
2018-11-27T00:31:58.516Z,21.68
2018-11-27T00:32:36.073Z,21.67
2018-11-27T00:33:13.631Z,21.67
2018-11-27T00:33:51.480Z,21.70
2018-11-27T00:34:29.144Z,21.67
2018-11-27T00:35:06.796Z,21.67
2018-11-27T00:35:44.519Z,21.68
2018-11-27T00:36:22.182Z,21.67
2018-11-27T00:36:59.855Z,21.66
2018-11-27T00:37:37.670Z,21.67
2018-11-27T00:38:15.288Z,21.65
2018-11-27T00:38:52.878Z,21.67
2018-11-27T00:39:30.493Z,21.70
2018-11-27T00:40:08.131Z,21.67
2018-11-27T00:40:45.756Z,21.66
2018-11-27T00:41:23.263Z,21.65
2018-11-27T00:42:00.878Z,21.65
2018-11-27T00:42:38.497Z,21.64
2018-11-27T00:43:16.058Z,21.62
2018-11-27T00:43:53.577Z,21.65
2018-11-27T00:44:31.109Z,21.63
2018-11-27T00:45:08.680Z,21.63
2018-11-27T00:45:46.287Z,21.62
2018-11-27T00:46:23.928Z,21.61
2018-11-27T00:47:01.382Z,21.66
2018-11-27T00:47:38.912Z,21.63
2018-11-27T00:48:16.732Z,21.63
2018-11-27T00:48:54.307Z,21.63
2018-11-27T00:49:31.882Z,21.62
2018-11-27T00:50:09.465Z,21.64
2018-11-27T00:50:47.124Z,21.62
2018-11-27T00:51:24.460Z,21.61
2018-11-27T00:52:01.852Z,21.62
2018-11-27T00:52:39.416Z,21.63
2018-11-27T00:53:17.001Z,21.64
2018-11-27T00:53:54.555Z,21.61
2018-11-27T00:54:32.164Z,21.60
2018-11-27T00:55:09.844Z,21.58
2018-11-27T00:55:47.496Z,21.60
2018-11-27T00:56:24.917Z,21.60
2018-11-27T00:57:02.524Z,21.59
2018-11-27T00:57:40.138Z,21.63
2018-11-27T00:58:17.719Z,21.62
2018-11-27T00:58:55.214Z,21.59
2018-11-27T00:59:32.913Z,21.60
2018-11-27T01:00:10.589Z,21.60
2018-11-27T01:00:48.284Z,21.59
2018-11-27T01:01:25.792Z,21.58
2018-11-27T01:02:03.368Z,21.57
2018-11-27T01:02:40.895Z,21.57
2018-11-27T01:03:18.417Z,21.55
2018-11-27T01:03:55.983Z,21.57
2018-11-27T01:04:33.484Z,21.57
2018-11-27T01:05:10.949Z,21.55
2018-11-27T01:05:48.701Z,21.55
2018-11-27T01:06:26.205Z,21.57
2018-11-27T01:07:03.890Z,21.57
2018-11-27T01:07:41.372Z,21.57
2018-11-27T01:08:18.949Z,21.56
2018-11-27T01:08:56.607Z,21.54
2018-11-27T01:09:34.071Z,21.54
2018-11-27T01:10:11.670Z,21.54
2018-11-27T01:10:49.160Z,21.53
2018-11-27T01:11:26.831Z,21.53
2018-11-27T01:12:04.499Z,21.53
2018-11-27T01:12:42.324Z,21.56
2018-11-27T01:13:19.990Z,21.55
2018-11-27T01:13:57.566Z,21.56
2018-11-27T01:14:35.121Z,21.56
2018-11-27T01:15:12.688Z,21.57
2018-11-27T01:15:50.241Z,21.57
2018-11-27T01:16:28.021Z,21.57
2018-11-27T01:17:05.548Z,21.54
2018-11-27T01:17:43.316Z,21.54
2018-11-27T01:18:21.060Z,21.54
2018-11-27T01:18:58.623Z,21.56
2018-11-27T01:19:36.217Z,21.58
2018-11-27T01:20:13.732Z,21.58
2018-11-27T01:20:51.386Z,21.56
2018-11-27T01:21:28.974Z,21.56
2018-11-27T01:22:06.447Z,21.56
2018-11-27T01:22:44.042Z,21.55
2018-11-27T01:23:21.642Z,21.54
2018-11-27T01:23:59.368Z,21.56
2018-11-27T01:24:37.319Z,21.54
2018-11-27T01:25:14.870Z,21.53
2018-11-27T01:25:52.459Z,21.51
2018-11-27T01:26:30.086Z,21.52
2018-11-27T01:27:07.660Z,21.49
2018-11-27T01:27:45.510Z,21.50
2018-11-27T01:28:23.207Z,21.50
2018-11-27T01:29:00.795Z,21.51
2018-11-27T01:29:38.436Z,21.49
2018-11-27T01:30:16.135Z,21.49
2018-11-27T01:30:53.768Z,21.49
2018-11-27T01:31:31.293Z,21.51
2018-11-27T01:32:09.129Z,21.50
2018-11-27T01:32:46.604Z,21.49
2018-11-27T01:33:24.212Z,21.48
2018-11-27T01:34:01.915Z,21.49
2018-11-27T01:34:39.647Z,21.49
2018-11-27T01:35:17.348Z,21.48
2018-11-27T01:35:55.036Z,21.48
2018-11-27T01:36:32.756Z,21.47
2018-11-27T01:37:10.398Z,21.48
2018-11-27T01:37:48.116Z,21.49
2018-11-27T01:38:25.621Z,21.48
2018-11-27T01:39:03.295Z,21.47
2018-11-27T01:39:40.988Z,21.48
2018-11-27T01:40:18.640Z,21.48
2018-11-27T01:40:56.554Z,21.49
2018-11-27T01:41:34.241Z,21.49
2018-11-27T01:42:11.764Z,21.48
2018-11-27T01:42:49.647Z,21.48
2018-11-27T01:43:27.788Z,21.50
2018-11-27T01:44:04.730Z,21.50
2018-11-27T01:44:42.448Z,21.49
2018-11-27T01:45:19.935Z,21.49
2018-11-27T01:45:57.666Z,21.48
2018-11-27T01:46:35.242Z,21.48
2018-11-27T01:47:12.940Z,21.47
2018-11-27T01:47:50.486Z,21.46
2018-11-27T01:48:28.157Z,21.47
2018-11-27T01:49:05.639Z,21.46
2018-11-27T01:49:43.101Z,21.47
2018-11-27T01:50:20.912Z,21.46
2018-11-27T01:50:58.773Z,21.47
2018-11-27T01:51:36.379Z,21.48
2018-11-27T01:52:13.863Z,21.48
2018-11-27T01:52:51.443Z,21.47
2018-11-27T01:53:29.172Z,21.49
2018-11-27T01:54:06.743Z,21.49
2018-11-27T01:54:44.481Z,21.47
2018-11-27T01:55:22.063Z,21.47
2018-11-27T01:55:59.741Z,21.48
2018-11-27T01:56:37.218Z,21.47
2018-11-27T01:57:15.071Z,21.48
2018-11-27T01:57:52.831Z,21.48
2018-11-27T01:58:30.361Z,21.47
2018-11-27T01:59:07.981Z,21.47
2018-11-27T01:59:45.721Z,21.48
2018-11-27T02:00:23.108Z,21.46
2018-11-27T02:01:00.790Z,21.47
2018-11-27T02:01:38.604Z,21.47
2018-11-27T02:02:16.252Z,21.45
2018-11-27T02:02:54.016Z,21.46
2018-11-27T02:03:31.530Z,21.47
2018-11-27T02:04:09.050Z,21.45
2018-11-27T02:04:46.754Z,21.46
2018-11-27T02:05:24.476Z,21.46
2018-11-27T02:06:02.399Z,21.46
2018-11-27T02:06:40.081Z,21.46
2018-11-27T02:07:17.695Z,21.45
2018-11-27T02:07:55.187Z,21.45
2018-11-27T02:08:32.668Z,21.45
2018-11-27T02:09:10.222Z,21.45
2018-11-27T02:09:48.057Z,21.45
2018-11-27T02:10:25.587Z,21.46
2018-11-27T02:11:03.034Z,21.45
2018-11-27T02:11:40.666Z,21.45
2018-11-27T02:12:18.171Z,21.45
2018-11-27T02:13:01.028Z,21.45
2018-11-27T02:13:33.629Z,21.45
2018-11-27T02:14:11.389Z,21.46
2018-11-27T02:14:49.040Z,21.46
2018-11-27T02:15:26.614Z,21.46
2018-11-27T02:16:04.286Z,21.46
2018-11-27T02:16:41.911Z,21.47
2018-11-27T02:17:19.377Z,21.46
2018-11-27T02:17:57.076Z,21.46
2018-11-27T02:18:34.756Z,21.45
2018-11-27T02:19:12.514Z,21.46
2018-11-27T02:19:50.249Z,21.45
2018-11-27T02:20:27.900Z,21.45
2018-11-27T02:21:05.464Z,21.46
2018-11-27T02:21:43.112Z,21.44
2018-11-27T02:22:20.653Z,21.45
2018-11-27T02:22:58.246Z,21.47
2018-11-27T02:23:35.883Z,21.45
2018-11-27T02:24:13.516Z,21.45
2018-11-27T02:24:51.086Z,21.45
2018-11-27T02:25:28.803Z,21.46
2018-11-27T02:26:06.501Z,21.45
2018-11-27T02:26:44.158Z,21.46
2018-11-27T02:27:21.707Z,21.46
2018-11-27T02:27:59.321Z,21.45
2018-11-27T02:28:36.834Z,21.45
2018-11-27T02:29:14.356Z,21.45
2018-11-27T02:29:51.951Z,21.44
2018-11-27T02:30:29.783Z,21.45
2018-11-27T02:31:07.657Z,21.45
2018-11-27T02:31:45.246Z,21.45
2018-11-27T02:32:22.738Z,21.45
2018-11-27T02:33:00.317Z,21.45
2018-11-27T02:33:38.081Z,21.45
2018-11-27T02:34:15.748Z,21.46
2018-11-27T02:34:53.433Z,21.46
2018-11-27T02:35:31.046Z,21.45
2018-11-27T02:36:08.622Z,21.45
2018-11-27T02:36:46.215Z,21.45
2018-11-27T02:37:23.929Z,21.46
2018-11-27T02:38:01.442Z,21.46
2018-11-27T02:38:39.168Z,21.45
2018-11-27T02:39:16.704Z,21.45
2018-11-27T02:39:54.454Z,21.44
2018-11-27T02:40:31.895Z,21.44
2018-11-27T02:41:09.481Z,21.45
2018-11-27T02:41:47.163Z,21.45
2018-11-27T02:42:24.932Z,21.46
2018-11-27T02:43:02.515Z,21.45
2018-11-27T02:43:40.125Z,21.44
2018-11-27T02:44:17.529Z,21.45
2018-11-27T02:44:55.095Z,21.45
2018-11-27T02:45:32.677Z,21.44
2018-11-27T02:46:10.340Z,21.45
2018-11-27T02:46:48.024Z,21.46
2018-11-27T02:47:25.603Z,21.44
2018-11-27T02:48:03.188Z,21.45
2018-11-27T02:48:40.777Z,21.44
2018-11-27T02:49:18.237Z,21.44
2018-11-27T02:49:56.231Z,21.45
2018-11-27T02:50:33.781Z,21.44
2018-11-27T02:51:11.239Z,21.45
2018-11-27T02:51:48.947Z,21.43
2018-11-27T02:52:26.634Z,21.43
2018-11-27T02:53:04.173Z,21.43
2018-11-27T02:53:41.813Z,21.45
2018-11-27T02:54:19.245Z,21.44
2018-11-27T02:54:56.794Z,21.44
2018-11-27T02:55:34.249Z,21.45
2018-11-27T02:56:11.871Z,21.44
2018-11-27T02:56:49.547Z,21.44
2018-11-27T02:57:27.376Z,21.44
2018-11-27T02:58:05.016Z,21.43
2018-11-27T02:58:42.471Z,21.44
2018-11-27T02:59:20.254Z,21.44
2018-11-27T02:59:57.934Z,21.43
2018-11-27T03:00:35.426Z,21.44
2018-11-27T03:01:13.100Z,21.44
2018-11-27T03:01:50.694Z,21.44
2018-11-27T03:02:28.276Z,21.44
2018-11-27T03:03:05.876Z,21.44
2018-11-27T03:03:43.734Z,21.44
2018-11-27T03:04:21.381Z,21.44
2018-11-27T03:04:59.066Z,21.46
2018-11-27T03:05:36.684Z,21.44
2018-11-27T03:06:14.265Z,21.45
2018-11-27T03:06:51.849Z,21.44
2018-11-27T03:07:29.461Z,21.44
2018-11-27T03:08:07.182Z,21.43
2018-11-27T03:08:44.805Z,21.43
2018-11-27T03:09:23.160Z,21.43
2018-11-27T03:10:00.884Z,21.43
2018-11-27T03:10:38.687Z,21.44
2018-11-27T03:11:16.332Z,21.45
2018-11-27T03:11:54.090Z,21.44
2018-11-27T03:12:31.854Z,21.43
2018-11-27T03:13:09.536Z,21.44
2018-11-27T03:13:47.049Z,21.44
2018-11-27T03:14:24.751Z,21.44
2018-11-27T03:15:02.435Z,21.44
2018-11-27T03:15:40.011Z,21.44
2018-11-27T03:16:17.440Z,21.45
2018-11-27T03:16:55.054Z,21.44
2018-11-27T03:17:32.743Z,21.45
2018-11-27T03:18:10.293Z,21.44
2018-11-27T03:18:47.775Z,21.43
2018-11-27T03:19:25.371Z,21.44
2018-11-27T03:20:03.032Z,21.40
2018-11-27T03:20:40.591Z,21.42
2018-11-27T03:21:18.055Z,21.42
2018-11-27T03:21:55.703Z,21.44
2018-11-27T03:22:33.350Z,21.43
2018-11-27T03:23:11.020Z,21.42
2018-11-27T03:23:48.622Z,21.42
2018-11-27T03:24:26.077Z,21.42
2018-11-27T03:25:03.735Z,21.43
2018-11-27T03:25:41.341Z,21.42
2018-11-27T03:26:18.788Z,21.42
2018-11-27T03:26:56.378Z,21.42
2018-11-27T03:27:34.062Z,21.42
2018-11-27T03:28:11.966Z,21.42
2018-11-27T03:28:49.704Z,21.42
2018-11-27T03:29:27.394Z,21.42
2018-11-27T03:30:05.185Z,21.42
2018-11-27T03:30:42.896Z,21.42
2018-11-27T03:31:20.817Z,21.43
2018-11-27T03:31:58.468Z,21.42
2018-11-27T03:32:36.041Z,21.42
2018-11-27T03:33:13.725Z,21.42
2018-11-27T03:33:51.175Z,21.42
2018-11-27T03:34:28.769Z,21.42
2018-11-27T03:35:06.377Z,21.42
2018-11-27T03:35:44.028Z,21.42
2018-11-27T03:36:21.569Z,21.42
2018-11-27T03:36:59.281Z,21.42
2018-11-27T03:37:37.381Z,21.42
2018-11-27T03:38:15.195Z,21.42
2018-11-27T03:38:52.751Z,21.44
2018-11-27T03:39:30.528Z,21.42
2018-11-27T03:40:08.358Z,21.43
2018-11-27T03:40:46.035Z,21.42
2018-11-27T03:41:23.482Z,21.42
2018-11-27T03:42:01.216Z,21.43
2018-11-27T03:42:38.922Z,21.42
2018-11-27T03:43:16.595Z,21.43
2018-11-27T03:43:54.253Z,21.42
2018-11-27T03:44:31.839Z,21.42
2018-11-27T03:45:09.369Z,21.42
2018-11-27T03:45:46.993Z,21.42
2018-11-27T03:46:24.696Z,21.42
2018-11-27T03:47:02.237Z,21.43
2018-11-27T03:47:39.727Z,21.42
2018-11-27T03:48:17.537Z,21.43
2018-11-27T03:48:55.408Z,21.42
2018-11-27T03:49:33.334Z,21.42
2018-11-27T03:50:10.667Z,21.42
2018-11-27T03:50:48.274Z,21.42
2018-11-27T03:51:25.833Z,21.42
2018-11-27T03:52:03.599Z,21.43
2018-11-27T03:52:41.444Z,21.42
2018-11-27T03:53:18.827Z,21.42
2018-11-27T03:53:56.391Z,21.42
2018-11-27T03:54:33.943Z,21.42
2018-11-27T03:55:11.551Z,21.42
2018-11-27T03:55:49.136Z,21.43
2018-11-27T03:56:26.761Z,21.44
2018-11-27T03:57:04.398Z,21.42
2018-11-27T03:57:42.110Z,21.44
2018-11-27T03:58:19.703Z,21.44
2018-11-27T03:58:57.179Z,21.43
2018-11-27T03:59:34.882Z,21.42
2018-11-27T04:00:12.455Z,21.42
2018-11-27T04:00:50.069Z,21.42
2018-11-27T04:01:27.663Z,21.42
2018-11-27T04:02:05.412Z,21.43
2018-11-27T04:02:42.951Z,21.43
2018-11-27T04:03:20.904Z,21.44
2018-11-27T04:03:58.368Z,21.44
2018-11-27T04:04:36.105Z,21.45
2018-11-27T04:05:13.603Z,21.45
2018-11-27T04:05:51.199Z,21.46
2018-11-27T04:06:28.960Z,21.47
2018-11-27T04:07:06.552Z,21.47
2018-11-27T04:07:44.153Z,21.48
2018-11-27T04:08:21.677Z,21.50
2018-11-27T04:08:59.323Z,21.51
2018-11-27T04:09:36.863Z,21.52
2018-11-27T04:10:14.392Z,21.54
2018-11-27T04:10:51.939Z,21.54
2018-11-27T04:11:29.704Z,21.57
2018-11-27T04:12:07.239Z,21.57
2018-11-27T04:12:44.776Z,21.58
2018-11-27T04:13:22.508Z,21.59
2018-11-27T04:14:00.194Z,21.61
2018-11-27T04:14:37.844Z,21.60
2018-11-27T04:15:15.459Z,21.61
2018-11-27T04:15:52.976Z,21.62
2018-11-27T04:16:30.554Z,21.62
2018-11-27T04:17:08.092Z,21.63
2018-11-27T04:17:45.683Z,21.64
2018-11-27T04:18:23.336Z,21.64
2018-11-27T04:19:00.892Z,21.65
2018-11-27T04:19:38.476Z,21.66
2018-11-27T04:20:16.109Z,21.67
2018-11-27T04:20:53.848Z,21.67
2018-11-27T04:21:31.680Z,21.67
2018-11-27T04:22:09.242Z,21.67
2018-11-27T04:22:46.810Z,21.68
2018-11-27T04:23:24.648Z,21.69
2018-11-27T04:24:02.430Z,21.69
2018-11-27T04:24:40.100Z,21.70
2018-11-27T04:25:17.613Z,21.70
2018-11-27T04:25:55.281Z,21.71
2018-11-27T04:26:32.711Z,21.71
2018-11-27T04:27:10.315Z,21.71
2018-11-27T04:27:48.213Z,21.72
2018-11-27T04:28:26.051Z,21.72
2018-11-27T04:29:03.581Z,21.72
2018-11-27T04:29:41.090Z,21.73
2018-11-27T04:30:18.708Z,21.74
2018-11-27T04:30:56.271Z,21.74
2018-11-27T04:31:33.939Z,21.74
2018-11-27T04:32:11.818Z,21.74
2018-11-27T04:32:49.583Z,21.74
2018-11-27T04:33:27.055Z,21.74
2018-11-27T04:34:04.637Z,21.74
2018-11-27T04:34:42.192Z,21.76
2018-11-27T04:35:19.825Z,21.76
2018-11-27T04:35:57.325Z,21.75
2018-11-27T04:36:34.987Z,21.75
2018-11-27T04:37:12.821Z,21.75
2018-11-27T04:37:50.310Z,21.76
2018-11-27T04:38:27.913Z,21.76
2018-11-27T04:39:05.491Z,21.76
2018-11-27T04:39:42.988Z,21.77
2018-11-27T04:40:20.834Z,21.76
2018-11-27T04:40:58.616Z,21.77
2018-11-27T04:41:36.172Z,21.77
2018-11-27T04:42:13.850Z,21.78
2018-11-27T04:42:51.531Z,21.77
2018-11-27T04:43:29.192Z,21.77
2018-11-27T04:44:06.832Z,21.77
2018-11-27T04:44:44.282Z,21.79
2018-11-27T04:45:21.920Z,21.78
2018-11-27T04:45:59.458Z,21.78
2018-11-27T04:46:37.115Z,21.79
2018-11-27T04:47:14.769Z,21.78
2018-11-27T04:47:52.332Z,21.78
2018-11-27T04:48:30.043Z,21.79
2018-11-27T04:49:07.846Z,21.78
2018-11-27T04:49:45.587Z,21.78
2018-11-27T04:50:23.263Z,21.76
2018-11-27T04:51:00.784Z,21.79
2018-11-27T04:51:38.630Z,21.79
2018-11-27T04:52:16.334Z,21.78
2018-11-27T04:52:54.025Z,21.80
2018-11-27T04:53:31.672Z,21.79
2018-11-27T04:54:09.172Z,21.79
2018-11-27T04:54:46.654Z,21.79
2018-11-27T04:55:24.368Z,21.80
2018-11-27T04:56:02.044Z,21.80
2018-11-27T04:56:40.088Z,21.79
2018-11-27T04:57:17.665Z,21.80
2018-11-27T04:57:55.270Z,21.79
2018-11-27T04:58:32.990Z,21.80
2018-11-27T04:59:10.557Z,21.80
2018-11-27T04:59:48.058Z,21.79
2018-11-27T05:00:25.796Z,21.79
2018-11-27T05:01:03.588Z,21.80
2018-11-27T05:01:41.060Z,21.80
2018-11-27T05:02:18.629Z,21.82
2018-11-27T05:02:56.181Z,21.88
2018-11-27T05:03:33.914Z,21.90
2018-11-27T05:04:11.425Z,21.88
2018-11-27T05:04:49.146Z,21.84
2018-11-27T05:05:26.812Z,21.82
2018-11-27T05:06:04.519Z,21.80
2018-11-27T05:06:42.242Z,21.79
2018-11-27T05:07:19.772Z,21.77
2018-11-27T05:07:57.459Z,21.76
2018-11-27T05:08:35.096Z,21.75
2018-11-27T05:09:12.879Z,21.74
2018-11-27T05:09:50.384Z,21.73
2018-11-27T05:10:28.005Z,21.72
2018-11-27T05:11:05.592Z,21.71
2018-11-27T05:11:43.222Z,21.71
2018-11-27T05:12:20.953Z,21.70
2018-11-27T05:12:58.665Z,21.69
2018-11-27T05:13:36.075Z,21.70
2018-11-27T05:14:13.718Z,21.69
2018-11-27T05:14:51.417Z,21.69
2018-11-27T05:15:28.969Z,21.69
2018-11-27T05:16:06.544Z,21.68
2018-11-27T05:16:44.336Z,21.69
2018-11-27T05:17:22.252Z,21.69
2018-11-27T05:17:59.873Z,21.75
2018-11-27T05:18:37.473Z,21.77
2018-11-27T05:19:15.067Z,21.77
2018-11-27T05:19:52.758Z,21.76
2018-11-27T05:20:30.272Z,21.77
2018-11-27T05:21:07.904Z,21.76
2018-11-27T05:21:45.829Z,21.76
2018-11-27T05:22:23.537Z,21.76
2018-11-27T05:23:01.364Z,21.73
2018-11-27T05:23:38.987Z,21.75
2018-11-27T05:24:16.572Z,21.77
2018-11-27T05:24:54.281Z,21.74
2018-11-27T05:25:31.821Z,21.75
2018-11-27T05:26:09.340Z,21.74
2018-11-27T05:26:46.812Z,21.73
2018-11-27T05:27:24.540Z,21.73
2018-11-27T05:28:02.055Z,21.77
2018-11-27T05:28:39.491Z,21.79
2018-11-27T05:29:17.170Z,21.83
2018-11-27T05:29:54.798Z,21.85
2018-11-27T05:30:32.283Z,21.86
2018-11-27T05:31:10.380Z,21.87
2018-11-27T05:31:48.153Z,21.88
2018-11-27T05:32:25.617Z,21.90
2018-11-27T05:33:03.218Z,21.91
2018-11-27T05:33:40.898Z,21.92
2018-11-27T05:34:18.498Z,21.93
2018-11-27T05:34:56.046Z,21.91
2018-11-27T05:35:33.599Z,21.90
2018-11-27T05:36:11.184Z,21.88
2018-11-27T05:36:48.653Z,21.87
2018-11-27T05:37:26.380Z,21.87
2018-11-27T05:38:03.924Z,21.86
2018-11-27T05:38:41.606Z,21.85
2018-11-27T05:39:19.008Z,21.86
2018-11-27T05:39:56.708Z,21.90
2018-11-27T05:40:34.456Z,21.88
2018-11-27T05:41:12.176Z,21.88
2018-11-27T05:41:49.927Z,21.88
2018-11-27T05:42:27.415Z,21.88
2018-11-27T05:43:05.135Z,21.89
2018-11-27T05:43:46.150Z,21.89
2018-11-27T05:44:20.249Z,21.89
2018-11-27T05:44:57.782Z,21.89
2018-11-27T05:45:35.267Z,21.89
2018-11-27T05:46:12.753Z,21.90
2018-11-27T05:46:50.382Z,21.89
2018-11-27T05:47:28.149Z,21.90
2018-11-27T05:48:05.831Z,21.89
2018-11-27T05:48:43.383Z,21.90
2018-11-27T05:49:21.107Z,21.90
2018-11-27T05:49:58.828Z,21.90
2018-11-27T05:50:36.424Z,21.90
2018-11-27T05:51:13.900Z,21.90
2018-11-27T05:51:51.563Z,21.93
2018-11-27T05:52:29.098Z,21.93
2018-11-27T05:53:06.688Z,21.94
2018-11-27T05:53:44.388Z,21.95
2018-11-27T05:54:22.314Z,21.95
2018-11-27T05:55:00.033Z,21.94
2018-11-27T05:55:37.638Z,21.94
2018-11-27T05:56:15.312Z,21.97
2018-11-27T05:56:53.216Z,21.99
2018-11-27T05:57:30.800Z,22.01
2018-11-27T05:58:08.353Z,22.02
2018-11-27T05:58:45.944Z,22.02
2018-11-27T05:59:23.694Z,21.99
2018-11-27T06:00:01.546Z,21.97
2018-11-27T06:00:39.222Z,21.94
2018-11-27T06:01:17.078Z,21.93
2018-11-27T06:01:54.586Z,21.92
2018-11-27T06:02:32.484Z,21.92
2018-11-27T06:03:10.391Z,21.90
2018-11-27T06:03:47.956Z,21.90
2018-11-27T06:04:25.686Z,21.88
2018-11-27T06:05:03.516Z,21.88
2018-11-27T06:05:40.961Z,21.87
2018-11-27T06:06:18.481Z,21.86
2018-11-27T06:06:56.022Z,21.88
2018-11-27T06:07:33.673Z,21.84
2018-11-27T06:08:11.524Z,21.83
2018-11-27T06:08:49.339Z,21.84
2018-11-27T06:09:27.126Z,21.84
2018-11-27T06:10:04.780Z,21.83
2018-11-27T06:10:42.445Z,21.83
2018-11-27T06:11:20.111Z,21.82
2018-11-27T06:11:57.884Z,21.81
2018-11-27T06:12:35.648Z,21.81
2018-11-27T06:13:13.132Z,21.82
2018-11-27T06:13:50.756Z,21.81
2018-11-27T06:14:28.383Z,21.81
2018-11-27T06:15:05.973Z,21.81
2018-11-27T06:15:43.892Z,21.80
2018-11-27T06:16:21.249Z,21.81
2018-11-27T06:16:58.864Z,21.81
2018-11-27T06:17:36.378Z,21.81
2018-11-27T06:18:14.296Z,21.81
2018-11-27T06:18:51.895Z,21.80
2018-11-27T06:19:29.365Z,21.80
2018-11-27T06:20:07.107Z,21.80
2018-11-27T06:20:44.893Z,21.80
2018-11-27T06:21:22.588Z,21.79
2018-11-27T06:22:00.287Z,21.80
2018-11-27T06:22:38.043Z,21.80
2018-11-27T06:23:15.635Z,21.80
2018-11-27T06:23:53.234Z,21.80
2018-11-27T06:24:30.924Z,21.80
2018-11-27T06:25:08.330Z,21.78
2018-11-27T06:25:46.267Z,21.80
2018-11-27T06:26:23.745Z,21.80
2018-11-27T06:27:01.336Z,21.81
2018-11-27T06:27:39.016Z,21.80
2018-11-27T06:28:16.690Z,21.79
2018-11-27T06:28:54.356Z,21.79
2018-11-27T06:29:31.937Z,21.80
2018-11-27T06:30:09.632Z,21.81
2018-11-27T06:30:47.063Z,21.78
2018-11-27T06:31:24.827Z,21.78
2018-11-27T06:32:02.407Z,21.79
2018-11-27T06:32:39.921Z,21.77
2018-11-27T06:33:17.786Z,21.78
2018-11-27T06:33:55.609Z,21.77
2018-11-27T06:34:33.101Z,21.79
2018-11-27T06:35:10.616Z,21.78
2018-11-27T06:35:48.048Z,21.77
2018-11-27T06:36:25.578Z,21.78
2018-11-27T06:37:03.160Z,21.77
2018-11-27T06:37:40.823Z,21.77
2018-11-27T06:38:18.293Z,21.78
2018-11-27T06:38:55.861Z,21.77
2018-11-27T06:39:33.433Z,21.76
2018-11-27T06:40:11.022Z,21.78
2018-11-27T06:40:48.548Z,21.79
2018-11-27T06:41:26.277Z,21.78
2018-11-27T06:42:03.780Z,21.78
2018-11-27T06:42:41.361Z,21.77
2018-11-27T06:43:18.970Z,21.75
2018-11-27T06:43:56.604Z,21.76
2018-11-27T06:44:34.171Z,21.75
2018-11-27T06:45:11.829Z,21.75
2018-11-27T06:45:49.353Z,21.76
2018-11-27T06:46:26.986Z,21.77
2018-11-27T06:47:04.496Z,21.76
2018-11-27T06:47:42.231Z,21.75
2018-11-27T06:48:19.725Z,21.75
2018-11-27T06:48:57.372Z,21.75
2018-11-27T06:49:35.085Z,21.76
2018-11-27T06:50:12.624Z,21.77
2018-11-27T06:50:50.107Z,21.75
2018-11-27T06:51:27.651Z,21.75
2018-11-27T06:52:05.292Z,21.76
2018-11-27T06:52:42.973Z,21.75
2018-11-27T06:53:20.578Z,21.75
2018-11-27T06:53:58.192Z,21.75
2018-11-27T06:54:35.656Z,21.75
2018-11-27T06:55:13.255Z,21.75
2018-11-27T06:55:50.751Z,21.75
2018-11-27T06:56:28.298Z,21.75
2018-11-27T06:57:05.896Z,21.74
2018-11-27T06:57:43.487Z,21.73
2018-11-27T06:58:21.053Z,21.74
2018-11-27T06:58:58.612Z,21.73
2018-11-27T06:59:36.140Z,21.74
2018-11-27T07:00:13.754Z,21.74
2018-11-27T07:00:51.313Z,21.75
2018-11-27T07:01:28.846Z,21.72
2018-11-27T07:02:06.460Z,21.73
2018-11-27T07:02:43.991Z,21.74
2018-11-27T07:03:21.674Z,21.73
2018-11-27T07:03:59.357Z,21.72
2018-11-27T07:04:37.293Z,21.73
2018-11-27T07:05:14.936Z,21.74
2018-11-27T07:05:52.768Z,21.74
2018-11-27T07:06:30.180Z,21.74
2018-11-27T07:07:07.687Z,21.73
2018-11-27T07:07:45.320Z,21.72
2018-11-27T07:08:22.816Z,21.72
2018-11-27T07:09:00.427Z,21.71
2018-11-27T07:09:38.076Z,21.73
2018-11-27T07:10:15.826Z,21.73
2018-11-27T07:10:53.371Z,21.73
2018-11-27T07:11:30.951Z,21.72
2018-11-27T07:12:08.484Z,21.72
2018-11-27T07:12:46.132Z,21.71
2018-11-27T07:13:23.633Z,21.71
2018-11-27T07:14:01.581Z,21.71
2018-11-27T07:14:39.371Z,21.72
2018-11-27T07:15:17.072Z,21.71
2018-11-27T07:15:54.870Z,21.71
2018-11-27T07:16:32.391Z,21.72
2018-11-27T07:17:10.020Z,21.72
2018-11-27T07:17:47.658Z,21.71
2018-11-27T07:18:25.352Z,21.72
2018-11-27T07:19:03.012Z,21.71
2018-11-27T07:19:40.772Z,21.71
2018-11-27T07:20:18.327Z,21.71
2018-11-27T07:20:55.901Z,21.71
2018-11-27T07:21:33.475Z,21.71
2018-11-27T07:22:11.183Z,21.72
2018-11-27T07:22:49.050Z,21.72
2018-11-27T07:23:26.908Z,21.71
2018-11-27T07:24:04.465Z,21.72
2018-11-27T07:24:42.271Z,21.71
2018-11-27T07:25:20.019Z,21.71
2018-11-27T07:25:57.889Z,21.70
2018-11-27T07:26:35.675Z,21.70
2018-11-27T07:27:13.219Z,21.69
2018-11-27T07:27:51.003Z,21.70
2018-11-27T07:28:28.663Z,21.70
2018-11-27T07:29:06.225Z,21.71
2018-11-27T07:29:43.720Z,21.71
2018-11-27T07:30:21.382Z,21.71
2018-11-27T07:30:58.885Z,21.72
2018-11-27T07:31:36.621Z,21.70
2018-11-27T07:32:14.066Z,21.71
2018-11-27T07:32:51.680Z,21.70
2018-11-27T07:33:29.397Z,21.72
2018-11-27T07:34:07.133Z,21.70
2018-11-27T07:34:44.670Z,21.69
2018-11-27T07:35:22.213Z,21.71
2018-11-27T07:35:59.740Z,21.71
2018-11-27T07:36:37.336Z,21.71
2018-11-27T07:37:15.023Z,21.72
2018-11-27T07:37:52.741Z,21.72
2018-11-27T07:38:30.173Z,21.74
2018-11-27T07:39:07.852Z,21.73
2018-11-27T07:39:45.588Z,21.73
2018-11-27T07:40:23.252Z,21.74
2018-11-27T07:41:00.763Z,21.75
2018-11-27T07:41:38.317Z,21.73
2018-11-27T07:42:15.852Z,21.75
2018-11-27T07:42:53.412Z,21.76
2018-11-27T07:43:31.073Z,21.74
2018-11-27T07:44:08.659Z,21.73
2018-11-27T07:44:46.281Z,21.74
2018-11-27T07:45:23.897Z,21.74
2018-11-27T07:46:01.503Z,21.74
2018-11-27T07:46:39.354Z,21.74
2018-11-27T07:47:16.901Z,21.76
2018-11-27T07:47:54.792Z,21.75
2018-11-27T07:48:32.316Z,21.75
2018-11-27T07:49:10.005Z,21.73
2018-11-27T07:49:47.559Z,21.74
2018-11-27T07:50:25.111Z,21.72
2018-11-27T07:51:02.516Z,21.73
2018-11-27T07:51:40.165Z,21.72
2018-11-27T07:52:17.672Z,21.71
2018-11-27T07:52:55.225Z,21.73
2018-11-27T07:53:32.965Z,21.74
2018-11-27T07:54:10.472Z,21.73
2018-11-27T07:54:48.053Z,21.74
2018-11-27T07:55:25.548Z,21.73
2018-11-27T07:56:03.214Z,21.72
2018-11-27T07:56:40.767Z,21.73
2018-11-27T07:57:18.343Z,21.75
2018-11-27T07:57:55.869Z,21.75
2018-11-27T07:58:33.502Z,21.74
2018-11-27T07:59:11.217Z,21.74
2018-11-27T07:59:48.903Z,21.76
2018-11-27T08:00:26.485Z,21.75
2018-11-27T08:01:04.128Z,21.75
2018-11-27T08:01:41.742Z,21.75
2018-11-27T08:02:19.444Z,21.74
2018-11-27T08:02:56.932Z,21.75
2018-11-27T08:03:34.547Z,21.73
2018-11-27T08:04:12.146Z,21.75